sensor_id;sensor_type;location;lat;lon;timestamp;temperature;humidity
32534;DHT22;18973;48.580;8.912;2022-09-29T00:00:39;9.10;99.90
32534;DHT22;18973;48.580;8.912;2022-09-29T00:03:05;9.00;99.90
32534;DHT22;18973;48.580;8.912;2022-09-29T00:05:30;9.10;99.90
32534;DHT22;18973;48.580;8.912;2022-09-29T00:07:56;9.20;99.90
32534;DHT22;18973;48.580;8.912;2022-09-29T00:10:22;9.20;99.90
32534;DHT22;18973;48.580;8.912;2022-09-29T00:12:48;9.20;99.90
32534;DHT22;18973;48.580;8.912;2022-09-29T00:15:14;9.10;99.90
32534;DHT22;18973;48.580;8.912;2022-09-29T00:17:40;8.80;99.90
32534;DHT22;18973;48.580;8.912;2022-09-29T00:20:06;8.80;99.90
32534;DHT22;18973;48.580;8.912;2022-09-29T00:22:33;8.80;99.90
32534;DHT22;18973;48.580;8.912;2022-09-29T00:24:58;8.90;99.90
32534;DHT22;18973;48.580;8.912;2022-09-29T00:27:24;9.00;99.90
32534;DHT22;18973;48.580;8.912;2022-09-29T00:29:50;8.80;99.90
32534;DHT22;18973;48.580;8.912;2022-09-29T00:32:16;8.90;99.90
32534;DHT22;18973;48.580;8.912;2022-09-29T00:34:41;8.90;99.90
32534;DHT22;18973;48.580;8.912;2022-09-29T00:37:07;8.70;99.90
32534;DHT22;18973;48.580;8.912;2022-09-29T00:39:33;8.80;99.90
32534;DHT22;18973;48.580;8.912;2022-09-29T00:41:58;8.80;99.90
32534;DHT22;18973;48.580;8.912;2022-09-29T00:47:12;8.70;99.90
32534;DHT22;18973;48.580;8.912;2022-09-29T00:49:50;8.80;99.90
32534;DHT22;18973;48.580;8.912;2022-09-29T00:54:52;8.80;99.90
32534;DHT22;18973;48.580;8.912;2022-09-29T00:57:25;8.90;99.90
32534;DHT22;18973;48.580;8.912;2022-09-29T01:02:21;9.00;99.90
32534;DHT22;18973;48.580;8.912;2022-09-29T01:04:49;9.00;99.90
32534;DHT22;18973;48.580;8.912;2022-09-29T01:07:16;8.90;99.90
32534;DHT22;18973;48.580;8.912;2022-09-29T01:09:42;9.00;99.90
32534;DHT22;18973;48.580;8.912;2022-09-29T01:12:08;9.00;99.90
32534;DHT22;18973;48.580;8.912;2022-09-29T01:14:36;9.00;99.90
32534;DHT22;18973;48.580;8.912;2022-09-29T01:17:03;9.10;99.90
32534;DHT22;18973;48.580;8.912;2022-09-29T01:25:06;9.00;99.90
32534;DHT22;18973;48.580;8.912;2022-09-29T01:38:22;9.20;99.90
32534;DHT22;18973;48.580;8.912;2022-09-29T01:41:11;9.20;99.90
32534;DHT22;18973;48.580;8.912;2022-09-29T01:43:56;9.10;99.90
32534;DHT22;18973;48.580;8.912;2022-09-29T01:46:47;9.00;99.90
32534;DHT22;18973;48.580;8.912;2022-09-29T01:49:12;9.00;99.90
32534;DHT22;18973;48.580;8.912;2022-09-29T01:52:02;9.10;99.90
32534;DHT22;18973;48.580;8.912;2022-09-29T01:54:39;9.10;99.90
32534;DHT22;18973;48.580;8.912;2022-09-29T01:57:17;9.20;99.90
32534;DHT22;18973;48.580;8.912;2022-09-29T02:00:18;9.20;99.90
32534;DHT22;18973;48.580;8.912;2022-09-29T02:05:32;9.30;99.90
32534;DHT22;18973;48.580;8.912;2022-09-29T02:08:14;9.30;99.90
32534;DHT22;18973;48.580;8.912;2022-09-29T02:11:03;9.20;99.90
32534;DHT22;18973;48.580;8.912;2022-09-29T02:13:41;9.20;99.90
32534;DHT22;18973;48.580;8.912;2022-09-29T02:16:10;9.20;99.90
32534;DHT22;18973;48.580;8.912;2022-09-29T02:18:46;9.20;99.90
32534;DHT22;18973;48.580;8.912;2022-09-29T02:21:12;9.10;99.90
32534;DHT22;18973;48.580;8.912;2022-09-29T02:23:38;9.10;99.90
32534;DHT22;18973;48.580;8.912;2022-09-29T02:26:04;9.10;99.90
32534;DHT22;18973;48.580;8.912;2022-09-29T02:28:30;9.10;99.90
32534;DHT22;18973;48.580;8.912;2022-09-29T02:30:56;9.00;99.90
32534;DHT22;18973;48.580;8.912;2022-09-29T02:33:23;9.10;99.90
32534;DHT22;18973;48.580;8.912;2022-09-29T02:36:21;9.10;99.90
32534;DHT22;18973;48.580;8.912;2022-09-29T02:56:22;9.10;99.90
32534;DHT22;18973;48.580;8.912;2022-09-29T02:59:11;9.10;99.90
32534;DHT22;18973;48.580;8.912;2022-09-29T03:01:48;9.20;99.90
32534;DHT22;18973;48.580;8.912;2022-09-29T03:04:15;9.20;99.90
32534;DHT22;18973;48.580;8.912;2022-09-29T03:06:42;9.20;99.90
32534;DHT22;18973;48.580;8.912;2022-09-29T03:09:07;9.10;99.90
32534;DHT22;18973;48.580;8.912;2022-09-29T03:11:33;9.20;99.90
32534;DHT22;18973;48.580;8.912;2022-09-29T03:13:59;9.20;99.90
32534;DHT22;18973;48.580;8.912;2022-09-29T03:16:25;9.20;99.90
32534;DHT22;18973;48.580;8.912;2022-09-29T03:18:51;9.20;99.90
32534;DHT22;18973;48.580;8.912;2022-09-29T03:21:17;9.10;99.90
32534;DHT22;18973;48.580;8.912;2022-09-29T03:23:42;9.10;99.90
32534;DHT22;18973;48.580;8.912;2022-09-29T03:26:08;9.10;99.90
32534;DHT22;18973;48.580;8.912;2022-09-29T03:28:34;9.10;99.90
32534;DHT22;18973;48.580;8.912;2022-09-29T03:31:04;9.10;99.90
32534;DHT22;18973;48.580;8.912;2022-09-29T03:33:31;9.00;99.90
32534;DHT22;18973;48.580;8.912;2022-09-29T03:35:56;9.10;99.90
32534;DHT22;18973;48.580;8.912;2022-09-29T03:38:22;9.10;99.90
32534;DHT22;18973;48.580;8.912;2022-09-29T03:40:48;8.90;99.90
32534;DHT22;18973;48.580;8.912;2022-09-29T03:43:14;8.80;99.90
32534;DHT22;18973;48.580;8.912;2022-09-29T03:45:59;8.50;99.90
32534;DHT22;18973;48.580;8.912;2022-09-29T03:48:25;8.50;99.90
32534;DHT22;18973;48.580;8.912;2022-09-29T03:50:55;8.60;99.90
32534;DHT22;18973;48.580;8.912;2022-09-29T03:53:21;8.60;99.90
32534;DHT22;18973;48.580;8.912;2022-09-29T03:55:50;8.70;99.90
32534;DHT22;18973;48.580;8.912;2022-09-29T03:58:17;8.70;99.90
32534;DHT22;18973;48.580;8.912;2022-09-29T04:00:43;8.40;99.90
32534;DHT22;18973;48.580;8.912;2022-09-29T04:03:08;8.50;99.90
32534;DHT22;18973;48.580;8.912;2022-09-29T04:05:34;8.30;99.90
32534;DHT22;18973;48.580;8.912;2022-09-29T04:08:04;8.10;99.90
32534;DHT22;18973;48.580;8.912;2022-09-29T04:10:30;8.00;99.90
32534;DHT22;18973;48.580;8.912;2022-09-29T04:12:58;8.10;99.90
32534;DHT22;18973;48.580;8.912;2022-09-29T04:15:23;8.20;99.90
32534;DHT22;18973;48.580;8.912;2022-09-29T04:17:49;8.30;99.90
32534;DHT22;18973;48.580;8.912;2022-09-29T04:20:15;8.30;99.90
32534;DHT22;18973;48.580;8.912;2022-09-29T04:22:41;8.30;99.90
32534;DHT22;18973;48.580;8.912;2022-09-29T04:25:07;8.30;99.90
32534;DHT22;18973;48.580;8.912;2022-09-29T04:27:33;8.20;99.90
32534;DHT22;18973;48.580;8.912;2022-09-29T04:29:58;8.20;99.90
32534;DHT22;18973;48.580;8.912;2022-09-29T04:32:24;8.30;99.90
32534;DHT22;18973;48.580;8.912;2022-09-29T04:34:50;8.30;99.90
32534;DHT22;18973;48.580;8.912;2022-09-29T04:37:16;8.20;99.90
32534;DHT22;18973;48.580;8.912;2022-09-29T04:39:41;8.30;99.90
32534;DHT22;18973;48.580;8.912;2022-09-29T04:42:07;8.40;99.90
32534;DHT22;18973;48.580;8.912;2022-09-29T04:44:33;8.50;99.90
32534;DHT22;18973;48.580;8.912;2022-09-29T04:46:58;8.50;99.90
32534;DHT22;18973;48.580;8.912;2022-09-29T04:49:24;8.50;99.90
32534;DHT22;18973;48.580;8.912;2022-09-29T04:51:50;8.50;99.90
32534;DHT22;18973;48.580;8.912;2022-09-29T04:54:15;8.50;99.90
32534;DHT22;18973;48.580;8.912;2022-09-29T04:56:41;8.50;99.90
32534;DHT22;18973;48.580;8.912;2022-09-29T04:59:09;8.50;99.90
32534;DHT22;18973;48.580;8.912;2022-09-29T05:01:35;8.40;99.90
32534;DHT22;18973;48.580;8.912;2022-09-29T05:04:00;8.40;99.90
32534;DHT22;18973;48.580;8.912;2022-09-29T05:06:27;8.40;99.90
32534;DHT22;18973;48.580;8.912;2022-09-29T05:08:52;8.30;99.90
32534;DHT22;18973;48.580;8.912;2022-09-29T05:11:18;8.20;99.90
32534;DHT22;18973;48.580;8.912;2022-09-29T05:13:47;8.30;99.90
32534;DHT22;18973;48.580;8.912;2022-09-29T05:16:14;8.30;99.90
32534;DHT22;18973;48.580;8.912;2022-09-29T05:18:40;8.40;99.90
32534;DHT22;18973;48.580;8.912;2022-09-29T05:21:07;8.40;99.90
32534;DHT22;18973;48.580;8.912;2022-09-29T05:23:33;8.40;99.90
32534;DHT22;18973;48.580;8.912;2022-09-29T05:26:03;8.50;99.90
32534;DHT22;18973;48.580;8.912;2022-09-29T05:28:29;8.50;99.90
32534;DHT22;18973;48.580;8.912;2022-09-29T05:30:59;8.50;99.90
32534;DHT22;18973;48.580;8.912;2022-09-29T05:33:24;8.50;99.90
32534;DHT22;18973;48.580;8.912;2022-09-29T05:35:50;8.50;99.90
32534;DHT22;18973;48.580;8.912;2022-09-29T05:38:16;8.50;99.90
32534;DHT22;18973;48.580;8.912;2022-09-29T05:40:41;8.50;99.90
32534;DHT22;18973;48.580;8.912;2022-09-29T05:43:07;8.50;99.90
32534;DHT22;18973;48.580;8.912;2022-09-29T05:45:33;8.50;99.90
32534;DHT22;18973;48.580;8.912;2022-09-29T05:47:59;8.40;99.90
32534;DHT22;18973;48.580;8.912;2022-09-29T05:50:27;8.20;99.90
32534;DHT22;18973;48.580;8.912;2022-09-29T05:52:53;8.30;99.90
32534;DHT22;18973;48.580;8.912;2022-09-29T05:55:19;8.30;99.90
32534;DHT22;18973;48.580;8.912;2022-09-29T05:57:48;8.30;99.90
32534;DHT22;18973;48.580;8.912;2022-09-29T06:00:14;8.20;99.90
32534;DHT22;18973;48.580;8.912;2022-09-29T06:02:40;8.30;99.90
32534;DHT22;18973;48.580;8.912;2022-09-29T06:05:06;8.30;99.90
32534;DHT22;18973;48.580;8.912;2022-09-29T06:07:31;8.30;99.90
32534;DHT22;18973;48.580;8.912;2022-09-29T06:09:57;8.10;99.90
32534;DHT22;18973;48.580;8.912;2022-09-29T06:12:23;8.20;99.90
32534;DHT22;18973;48.580;8.912;2022-09-29T06:14:49;8.20;99.90
32534;DHT22;18973;48.580;8.912;2022-09-29T06:17:14;8.20;99.90
32534;DHT22;18973;48.580;8.912;2022-09-29T06:19:40;8.30;99.90
32534;DHT22;18973;48.580;8.912;2022-09-29T06:22:06;8.30;99.90
32534;DHT22;18973;48.580;8.912;2022-09-29T06:24:31;8.30;99.90
32534;DHT22;18973;48.580;8.912;2022-09-29T06:26:57;8.30;99.90
32534;DHT22;18973;48.580;8.912;2022-09-29T06:29:23;8.30;99.90
32534;DHT22;18973;48.580;8.912;2022-09-29T06:31:48;8.40;99.90
32534;DHT22;18973;48.580;8.912;2022-09-29T06:34:14;8.40;99.90
32534;DHT22;18973;48.580;8.912;2022-09-29T06:36:41;8.40;99.90
32534;DHT22;18973;48.580;8.912;2022-09-29T06:39:27;8.30;99.90
32534;DHT22;18973;48.580;8.912;2022-09-29T06:41:52;8.30;99.90
32534;DHT22;18973;48.580;8.912;2022-09-29T06:44:23;8.30;99.90
32534;DHT22;18973;48.580;8.912;2022-09-29T06:46:49;8.30;99.90
32534;DHT22;18973;48.580;8.912;2022-09-29T06:49:16;8.30;99.90
32534;DHT22;18973;48.580;8.912;2022-09-29T06:51:42;8.30;99.90
32534;DHT22;18973;48.580;8.912;2022-09-29T06:54:12;8.30;99.90
32534;DHT22;18973;48.580;8.912;2022-09-29T06:56:38;8.30;99.90
32534;DHT22;18973;48.580;8.912;2022-09-29T06:59:04;8.20;99.90
32534;DHT22;18973;48.580;8.912;2022-09-29T07:01:30;8.30;99.90
32534;DHT22;18973;48.580;8.912;2022-09-29T07:03:56;8.40;99.90
32534;DHT22;18973;48.580;8.912;2022-09-29T07:06:21;8.30;99.90
32534;DHT22;18973;48.580;8.912;2022-09-29T07:08:52;8.30;99.90
32534;DHT22;18973;48.580;8.912;2022-09-29T07:11:18;8.30;99.90
32534;DHT22;18973;48.580;8.912;2022-09-29T07:13:43;8.40;99.90
32534;DHT22;18973;48.580;8.912;2022-09-29T07:16:10;8.30;99.90
32534;DHT22;18973;48.580;8.912;2022-09-29T07:18:38;8.30;99.90
32534;DHT22;18973;48.580;8.912;2022-09-29T07:21:09;8.50;99.90
32534;DHT22;18973;48.580;8.912;2022-09-29T07:23:36;8.50;99.90
32534;DHT22;18973;48.580;8.912;2022-09-29T07:26:03;8.50;99.90
32534;DHT22;18973;48.580;8.912;2022-09-29T07:28:29;8.50;99.90
32534;DHT22;18973;48.580;8.912;2022-09-29T07:31:06;8.50;99.90
32534;DHT22;18973;48.580;8.912;2022-09-29T07:33:32;8.50;99.90
32534;DHT22;18973;48.580;8.912;2022-09-29T07:35:58;8.50;99.90
32534;DHT22;18973;48.580;8.912;2022-09-29T07:38:29;8.60;99.90
32534;DHT22;18973;48.580;8.912;2022-09-29T07:40:59;8.70;99.90
32534;DHT22;18973;48.580;8.912;2022-09-29T07:43:26;8.70;99.90
32534;DHT22;18973;48.580;8.912;2022-09-29T07:45:52;8.80;99.90
32534;DHT22;18973;48.580;8.912;2022-09-29T07:48:18;8.80;99.90
32534;DHT22;18973;48.580;8.912;2022-09-29T07:50:44;8.90;99.90
32534;DHT22;18973;48.580;8.912;2022-09-29T07:53:10;9.00;99.90
32534;DHT22;18973;48.580;8.912;2022-09-29T07:55:37;9.00;99.90
32534;DHT22;18973;48.580;8.912;2022-09-29T07:58:03;9.10;99.90
32534;DHT22;18973;48.580;8.912;2022-09-29T08:00:29;9.10;99.90
32534;DHT22;18973;48.580;8.912;2022-09-29T08:03:04;9.10;99.90
32534;DHT22;18973;48.580;8.912;2022-09-29T08:05:32;9.10;99.90
32534;DHT22;18973;48.580;8.912;2022-09-29T08:08:02;9.10;99.90
32534;DHT22;18973;48.580;8.912;2022-09-29T08:10:30;9.20;99.90
32534;DHT22;18973;48.580;8.912;2022-09-29T08:12:56;9.20;99.90
32534;DHT22;18973;48.580;8.912;2022-09-29T08:15:22;9.20;99.90
32534;DHT22;18973;48.580;8.912;2022-09-29T08:17:51;9.20;99.90
32534;DHT22;18973;48.580;8.912;2022-09-29T08:20:18;9.30;99.90
32534;DHT22;18973;48.580;8.912;2022-09-29T08:22:43;9.40;99.90
32534;DHT22;18973;48.580;8.912;2022-09-29T08:25:09;9.50;99.90
32534;DHT22;18973;48.580;8.912;2022-09-29T08:27:35;9.50;99.90
32534;DHT22;18973;48.580;8.912;2022-09-29T08:30:00;9.60;99.90
32534;DHT22;18973;48.580;8.912;2022-09-29T08:32:26;9.70;99.90
32534;DHT22;18973;48.580;8.912;2022-09-29T08:34:52;9.80;99.90
32534;DHT22;18973;48.580;8.912;2022-09-29T08:37:18;9.80;99.90
32534;DHT22;18973;48.580;8.912;2022-09-29T08:39:44;10.00;99.90
32534;DHT22;18973;48.580;8.912;2022-09-29T08:45:07;10.20;99.90
32534;DHT22;18973;48.580;8.912;2022-09-29T08:47:46;10.20;99.90
32534;DHT22;18973;48.580;8.912;2022-09-29T08:50:30;10.20;99.90
32534;DHT22;18973;48.580;8.912;2022-09-29T08:53:05;10.40;99.90
32534;DHT22;18973;48.580;8.912;2022-09-29T08:55:45;10.40;99.90
32534;DHT22;18973;48.580;8.912;2022-09-29T08:58:12;10.40;99.90
32534;DHT22;18973;48.580;8.912;2022-09-29T09:01:12;10.40;99.90
32534;DHT22;18973;48.580;8.912;2022-09-29T09:04:04;10.60;99.90
32534;DHT22;18973;48.580;8.912;2022-09-29T09:24:12;11.40;99.90
32534;DHT22;18973;48.580;8.912;2022-09-29T09:26:41;11.40;99.90
32534;DHT22;18973;48.580;8.912;2022-09-29T09:32:03;11.40;99.90
32534;DHT22;18973;48.580;8.912;2022-09-29T09:34:56;11.40;99.90
32534;DHT22;18973;48.580;8.912;2022-09-29T09:37:29;11.50;99.90
32534;DHT22;18973;48.580;8.912;2022-09-29T09:40:24;11.50;99.90
32534;DHT22;18973;48.580;8.912;2022-09-29T09:43:01;11.50;99.90
32534;DHT22;18973;48.580;8.912;2022-09-29T09:45:44;11.60;99.90
32534;DHT22;18973;48.580;8.912;2022-09-29T09:49:18;12.30;99.90
32534;DHT22;18973;48.580;8.912;2022-09-29T09:53:58;12.40;99.90
32534;DHT22;18973;48.580;8.912;2022-09-29T09:57:23;12.40;99.90
32534;DHT22;18973;48.580;8.912;2022-09-29T10:02:00;12.30;99.90
32534;DHT22;18973;48.580;8.912;2022-09-29T10:04:27;12.30;99.90
32534;DHT22;18973;48.580;8.912;2022-09-29T10:06:53;12.30;99.90
32534;DHT22;18973;48.580;8.912;2022-09-29T10:09:19;12.30;99.90
32534;DHT22;18973;48.580;8.912;2022-09-29T10:11:45;12.30;99.90
32534;DHT22;18973;48.580;8.912;2022-09-29T10:14:14;12.40;99.90
32534;DHT22;18973;48.580;8.912;2022-09-29T10:16:45;12.30;99.90
32534;DHT22;18973;48.580;8.912;2022-09-29T10:19:12;12.20;99.90
32534;DHT22;18973;48.580;8.912;2022-09-29T10:21:42;12.30;99.90
32534;DHT22;18973;48.580;8.912;2022-09-29T10:24:23;12.30;99.90
32534;DHT22;18973;48.580;8.912;2022-09-29T10:26:54;12.50;99.90
32534;DHT22;18973;48.580;8.912;2022-09-29T10:29:36;12.50;99.90
32534;DHT22;18973;48.580;8.912;2022-09-29T10:34:33;13.00;99.90
32534;DHT22;18973;48.580;8.912;2022-09-29T10:37:04;12.90;99.90
32534;DHT22;18973;48.580;8.912;2022-09-29T10:39:43;12.90;99.90
32534;DHT22;18973;48.580;8.912;2022-09-29T10:42:23;12.80;99.90
32534;DHT22;18973;48.580;8.912;2022-09-29T10:47:37;12.80;99.90
32534;DHT22;18973;48.580;8.912;2022-09-29T10:52:55;12.90;99.90
32534;DHT22;18973;48.580;8.912;2022-09-29T10:55:30;12.90;99.90
32534;DHT22;18973;48.580;8.912;2022-09-29T10:57:57;13.00;99.90
32534;DHT22;18973;48.580;8.912;2022-09-29T11:02:52;13.20;99.90
32534;DHT22;18973;48.580;8.912;2022-09-29T11:05:20;13.10;99.90
32534;DHT22;18973;48.580;8.912;2022-09-29T11:07:51;13.30;99.90
32534;DHT22;18973;48.580;8.912;2022-09-29T11:10:40;13.20;99.90
32534;DHT22;18973;48.580;8.912;2022-09-29T11:15:49;13.30;99.90
32534;DHT22;18973;48.580;8.912;2022-09-29T11:18:26;13.30;99.90
32534;DHT22;18973;48.580;8.912;2022-09-29T11:21:45;13.40;99.90
32534;DHT22;18973;48.580;8.912;2022-09-29T11:24:27;13.40;99.90
32534;DHT22;18973;48.580;8.912;2022-09-29T11:27:32;13.50;99.90
32534;DHT22;18973;48.580;8.912;2022-09-29T11:43:57;13.40;99.90
32534;DHT22;18973;48.580;8.912;2022-09-29T11:46:52;13.40;99.90
32534;DHT22;18973;48.580;8.912;2022-09-29T12:00:19;13.80;99.90
32534;DHT22;18973;48.580;8.912;2022-09-29T12:11:21;13.90;99.90
32534;DHT22;18973;48.580;8.912;2022-09-29T12:14:12;14.00;99.90
32534;DHT22;18973;48.580;8.912;2022-09-29T12:16:50;13.90;99.90
32534;DHT22;18973;48.580;8.912;2022-09-29T12:19:20;13.90;99.90
32534;DHT22;18973;48.580;8.912;2022-09-29T12:21:52;13.80;99.90
32534;DHT22;18973;48.580;8.912;2022-09-29T12:26:50;13.80;99.90
32534;DHT22;18973;48.580;8.912;2022-09-29T12:29:40;13.80;99.90
32534;DHT22;18973;48.580;8.912;2022-09-29T12:32:17;13.80;99.90
32534;DHT22;18973;48.580;8.912;2022-09-29T12:34:58;13.90;99.90
32534;DHT22;18973;48.580;8.912;2022-09-29T12:37:38;14.00;99.90
32534;DHT22;18973;48.580;8.912;2022-09-29T12:40:37;14.20;99.90
32534;DHT22;18973;48.580;8.912;2022-09-29T12:43:22;14.30;99.90
32534;DHT22;18973;48.580;8.912;2022-09-29T12:45:58;14.30;99.90
32534;DHT22;18973;48.580;8.912;2022-09-29T12:51:37;14.50;99.90
32534;DHT22;18973;48.580;8.912;2022-09-29T12:56:58;14.50;99.90
32534;DHT22;18973;48.580;8.912;2022-09-29T12:59:38;14.50;99.90
32534;DHT22;18973;48.580;8.912;2022-09-29T13:08:12;14.50;99.90
32534;DHT22;18973;48.580;8.912;2022-09-29T13:21:33;14.50;99.90
32534;DHT22;18973;48.580;8.912;2022-09-29T13:24:18;14.60;99.90
32534;DHT22;18973;48.580;8.912;2022-09-29T13:29:25;14.50;99.90
32534;DHT22;18973;48.580;8.912;2022-09-29T13:31:54;14.60;99.50
32534;DHT22;18973;48.580;8.912;2022-09-29T13:34:30;14.60;99.90
32534;DHT22;18973;48.580;8.912;2022-09-29T13:39:30;14.60;98.60
32534;DHT22;18973;48.580;8.912;2022-09-29T13:42:25;14.70;99.40
32534;DHT22;18973;48.580;8.912;2022-09-29T13:47:48;14.60;98.60
32534;DHT22;18973;48.580;8.912;2022-09-29T13:53:34;14.70;98.70
32534;DHT22;18973;48.580;8.912;2022-09-29T13:58:31;14.60;98.10
32534;DHT22;18973;48.580;8.912;2022-09-29T14:01:02;14.60;96.90
32534;DHT22;18973;48.580;8.912;2022-09-29T14:06:07;14.60;98.20
32534;DHT22;18973;48.580;8.912;2022-09-29T14:08:39;14.70;99.30
32534;DHT22;18973;48.580;8.912;2022-09-29T14:18:50;14.60;97.40
32534;DHT22;18973;48.580;8.912;2022-09-29T14:24:01;14.60;97.60
32534;DHT22;18973;48.580;8.912;2022-09-29T14:26:46;14.60;97.80
32534;DHT22;18973;48.580;8.912;2022-09-29T14:29:22;14.60;97.90
32534;DHT22;18973;48.580;8.912;2022-09-29T14:31:52;14.60;98.70
32534;DHT22;18973;48.580;8.912;2022-09-29T14:34:19;14.60;98.00
32534;DHT22;18973;48.580;8.912;2022-09-29T14:36:47;14.70;97.90
32534;DHT22;18973;48.580;8.912;2022-09-29T14:39:13;14.50;98.20
32534;DHT22;18973;48.580;8.912;2022-09-29T14:41:44;14.40;98.00
32534;DHT22;18973;48.580;8.912;2022-09-29T14:44:30;14.40;98.40
32534;DHT22;18973;48.580;8.912;2022-09-29T15:03:38;14.40;97.80
32534;DHT22;18973;48.580;8.912;2022-09-29T15:06:17;14.40;97.60
32534;DHT22;18973;48.580;8.912;2022-09-29T15:08:53;14.40;98.00
32534;DHT22;18973;48.580;8.912;2022-09-29T15:13:52;14.40;98.10
32534;DHT22;18973;48.580;8.912;2022-09-29T15:16:34;14.30;98.90
32534;DHT22;18973;48.580;8.912;2022-09-29T15:19:04;14.40;99.20
32534;DHT22;18973;48.580;8.912;2022-09-29T15:26:40;14.40;98.70
32534;DHT22;18973;48.580;8.912;2022-09-29T15:29:06;14.40;98.40
32534;DHT22;18973;48.580;8.912;2022-09-29T15:31:32;14.50;98.50
32534;DHT22;18973;48.580;8.912;2022-09-29T15:34:02;14.50;98.70
32534;DHT22;18973;48.580;8.912;2022-09-29T15:36:31;14.40;97.80
32534;DHT22;18973;48.580;8.912;2022-09-29T15:39:00;14.30;97.60
32534;DHT22;18973;48.580;8.912;2022-09-29T15:41:26;14.30;97.70
32534;DHT22;18973;48.580;8.912;2022-09-29T15:43:55;14.20;98.20
32534;DHT22;18973;48.580;8.912;2022-09-29T15:46:38;14.20;98.20
32534;DHT22;18973;48.580;8.912;2022-09-29T15:51:34;14.20;98.30
32534;DHT22;18973;48.580;8.912;2022-09-29T15:54:01;14.20;98.60
32534;DHT22;18973;48.580;8.912;2022-09-29T15:56:30;14.20;98.80
32534;DHT22;18973;48.580;8.912;2022-09-29T15:58:55;14.10;98.50
32534;DHT22;18973;48.580;8.912;2022-09-29T16:01:21;13.90;98.60
32534;DHT22;18973;48.580;8.912;2022-09-29T16:03:56;13.90;99.10
32534;DHT22;18973;48.580;8.912;2022-09-29T16:08:53;13.70;99.50
32534;DHT22;18973;48.580;8.912;2022-09-29T16:11:21;13.80;99.90
32534;DHT22;18973;48.580;8.912;2022-09-29T16:13:49;13.80;99.90
32534;DHT22;18973;48.580;8.912;2022-09-29T16:16:15;13.60;99.70
32534;DHT22;18973;48.580;8.912;2022-09-29T16:18:42;13.50;99.90
32534;DHT22;18973;48.580;8.912;2022-09-29T16:21:18;13.50;99.90
32534;DHT22;18973;48.580;8.912;2022-09-29T16:31:25;13.30;99.90
32534;DHT22;18973;48.580;8.912;2022-09-29T16:33:52;13.10;99.90
32534;DHT22;18973;48.580;8.912;2022-09-29T16:36:25;13.00;99.90
32534;DHT22;18973;48.580;8.912;2022-09-29T16:38:52;12.90;99.90
32534;DHT22;18973;48.580;8.912;2022-09-29T16:41:22;12.90;99.90
32534;DHT22;18973;48.580;8.912;2022-09-29T16:44:01;12.80;99.90
32534;DHT22;18973;48.580;8.912;2022-09-29T16:46:26;12.80;99.90
32534;DHT22;18973;48.580;8.912;2022-09-29T16:48:52;12.80;99.90
32534;DHT22;18973;48.580;8.912;2022-09-29T16:51:19;12.70;99.90
32534;DHT22;18973;48.580;8.912;2022-09-29T16:58:05;12.80;99.90
32534;DHT22;18973;48.580;8.912;2022-09-29T17:00:34;12.90;99.90
32534;DHT22;18973;48.580;8.912;2022-09-29T17:03:01;12.80;99.90
32534;DHT22;18973;48.580;8.912;2022-09-29T17:05:34;12.70;99.90
32534;DHT22;18973;48.580;8.912;2022-09-29T17:08:01;12.70;99.90
32534;DHT22;18973;48.580;8.912;2022-09-29T17:10:29;12.70;99.90
32534;DHT22;18973;48.580;8.912;2022-09-29T17:12:55;12.60;99.90
32534;DHT22;18973;48.580;8.912;2022-09-29T17:15:21;12.60;99.90
32534;DHT22;18973;48.580;8.912;2022-09-29T17:17:48;12.50;99.90
32534;DHT22;18973;48.580;8.912;2022-09-29T17:20:17;12.40;99.90
32534;DHT22;18973;48.580;8.912;2022-09-29T17:22:44;12.40;99.90
32534;DHT22;18973;48.580;8.912;2022-09-29T17:25:11;12.40;99.90
32534;DHT22;18973;48.580;8.912;2022-09-29T17:27:37;12.30;99.90
32534;DHT22;18973;48.580;8.912;2022-09-29T17:30:23;12.40;99.90
32534;DHT22;18973;48.580;8.912;2022-09-29T17:32:52;12.40;99.90
32534;DHT22;18973;48.580;8.912;2022-09-29T17:35:22;12.40;99.90
32534;DHT22;18973;48.580;8.912;2022-09-29T17:37:48;12.30;99.90
32534;DHT22;18973;48.580;8.912;2022-09-29T17:40:34;12.30;99.90
32534;DHT22;18973;48.580;8.912;2022-09-29T17:43:02;12.40;99.90
32534;DHT22;18973;48.580;8.912;2022-09-29T17:45:28;12.30;99.90
32534;DHT22;18973;48.580;8.912;2022-09-29T17:47:55;12.20;99.90
32534;DHT22;18973;48.580;8.912;2022-09-29T17:53:30;12.20;99.90
32534;DHT22;18973;48.580;8.912;2022-09-29T17:55:56;12.20;99.90
32534;DHT22;18973;48.580;8.912;2022-09-29T17:58:22;12.20;99.90
32534;DHT22;18973;48.580;8.912;2022-09-29T18:00:50;12.20;99.90
32534;DHT22;18973;48.580;8.912;2022-09-29T18:03:18;12.10;99.90
32534;DHT22;18973;48.580;8.912;2022-09-29T18:05:46;12.10;99.90
32534;DHT22;18973;48.580;8.912;2022-09-29T18:08:15;12.20;99.90
32534;DHT22;18973;48.580;8.912;2022-09-29T18:10:50;12.10;99.90
32534;DHT22;18973;48.580;8.912;2022-09-29T18:13:17;12.10;99.90
32534;DHT22;18973;48.580;8.912;2022-09-29T18:15:43;12.10;99.90
32534;DHT22;18973;48.580;8.912;2022-09-29T18:18:11;12.10;99.90
32534;DHT22;18973;48.580;8.912;2022-09-29T18:20:40;12.00;99.90
32534;DHT22;18973;48.580;8.912;2022-09-29T18:23:06;12.00;99.90
32534;DHT22;18973;48.580;8.912;2022-09-29T18:25:32;12.00;99.90
32534;DHT22;18973;48.580;8.912;2022-09-29T18:27:59;11.90;99.90
32534;DHT22;18973;48.580;8.912;2022-09-29T18:30:33;11.90;99.90
32534;DHT22;18973;48.580;8.912;2022-09-29T18:33:05;11.90;99.90
32534;DHT22;18973;48.580;8.912;2022-09-29T18:35:34;12.00;99.90
32534;DHT22;18973;48.580;8.912;2022-09-29T18:38:01;11.90;99.90
32534;DHT22;18973;48.580;8.912;2022-09-29T18:40:28;11.90;99.90
32534;DHT22;18973;48.580;8.912;2022-09-29T18:42:55;12.00;99.90
32534;DHT22;18973;48.580;8.912;2022-09-29T18:45:24;12.00;99.90
32534;DHT22;18973;48.580;8.912;2022-09-29T18:47:54;11.90;99.90
32534;DHT22;18973;48.580;8.912;2022-09-29T18:50:27;11.90;99.90
32534;DHT22;18973;48.580;8.912;2022-09-29T18:52:54;11.90;99.90
32534;DHT22;18973;48.580;8.912;2022-09-29T18:55:23;11.90;99.90
32534;DHT22;18973;48.580;8.912;2022-09-29T18:57:51;12.00;99.90
32534;DHT22;18973;48.580;8.912;2022-09-29T19:00:19;11.90;99.90
32534;DHT22;18973;48.580;8.912;2022-09-29T19:02:46;11.90;99.90
32534;DHT22;18973;48.580;8.912;2022-09-29T19:05:15;11.90;99.90
32534;DHT22;18973;48.580;8.912;2022-09-29T19:07:44;11.80;99.90
32534;DHT22;18973;48.580;8.912;2022-09-29T19:10:11;11.90;99.90
32534;DHT22;18973;48.580;8.912;2022-09-29T19:12:37;11.90;99.90
32534;DHT22;18973;48.580;8.912;2022-09-29T19:15:03;11.80;99.90
32534;DHT22;18973;48.580;8.912;2022-09-29T19:17:30;11.90;99.90
32534;DHT22;18973;48.580;8.912;2022-09-29T19:19:56;11.80;99.90
32534;DHT22;18973;48.580;8.912;2022-09-29T19:22:22;11.80;99.90
32534;DHT22;18973;48.580;8.912;2022-09-29T19:24:50;11.90;99.90
32534;DHT22;18973;48.580;8.912;2022-09-29T19:27:20;11.90;99.90
32534;DHT22;18973;48.580;8.912;2022-09-29T19:29:45;11.80;99.90
32534;DHT22;18973;48.580;8.912;2022-09-29T19:32:12;11.90;99.90